»·PEaware :: N350PB KVNY-KSNA

N350PB :: KVNY-KSNA

FLIGHT INFORMATION

Flight Status: Arrived
Operator: Privately registered:
United States
More flights under this callsign
Pilot: John H. (3957)
Aircraft: BEECH AIRCRAFT A90-E90 KING AIR
(BE9L)
More flights by this aircraft type
Origin: KVNY Van Nuys
United States
Destination: KSNA John Wayne-Orange Co
United States
More flights between these airports :: More routes between these airports
Route: TWINE V518 KIMMO V459 SLI
File this flight plan on PilotEdge
Remarks: TEC route BURP21
Altitude:
(Current/Filed)
9,000ft
Speed:
(Current/Filed)
245kts
Departed: 16-Dec-19 02:53 PM
Arrived: 16-Dec-19 03:29 PM
Distance/Time
Traveled:
45nm/0:36
Distance/Time
To Go:
Arrived

Flight Plot

Page will automatically refresh every two minutes.


Map Options




Map Legend


Flown Route
Filed Route
Departure Airport
Arrival Airport
Navaid (VOR, NDB)
Fix

Horizontal Profiles

Position Reports

Time Latitude Longitude Heading Altitude Ground
Speed
16-Dec-19 14:32 34.194276 -118.490623 0 744ft 0kts
16-Dec-19 14:33 34.194276 -118.490623 0 744ft 0kts
16-Dec-19 14:35 34.194276 -118.490623 0 744ft 0kts
16-Dec-19 14:35 34.194276 -118.490623 0 744ft 0kts
16-Dec-19 14:36 34.194276 -118.490623 0 744ft 0kts
16-Dec-19 14:37 34.194276 -118.490623 0 744ft 0kts
16-Dec-19 14:38 34.194276 -118.490623 0 744ft 0kts
16-Dec-19 14:39 34.194276 -118.490623 0 744ft 0kts
16-Dec-19 14:40 34.194276 -118.490623 0 744ft 0kts
16-Dec-19 14:41 34.194276 -118.490623 0 744ft 0kts
16-Dec-19 14:42 34.194276 -118.490623 0 744ft 0kts
16-Dec-19 14:43 34.194276 -118.490623 0 744ft 0kts
16-Dec-19 14:44 34.194276 -118.490623 0 744ft 0kts
16-Dec-19 14:45 34.194276 -118.490623 0 744ft 0kts
16-Dec-19 14:46 34.194276 -118.490623 0 744ft 0kts
16-Dec-19 14:47 34.194278 -118.490623 0 744ft 0kts
16-Dec-19 14:48 34.194366 -118.490613 8 744ft 4kts
16-Dec-19 14:49 34.196242 -118.490310 353 748ft 0kts
16-Dec-19 14:50 34.197070 -118.489968 77 749ft 0kts
16-Dec-19 14:51 34.197088 -118.489714 89 749ft 6kts
16-Dec-19 14:52 34.203108 -118.489779 356 761ft 93kts
16-Dec-19 14:53 34.226135 -118.501878 279 1826ft 125kts
16-Dec-19 14:54 34.217021 -118.547965 262 2912ft 144kts
16-Dec-19 14:55 34.207252 -118.594390 261 4075ft 145kts
16-Dec-19 14:56 34.198564 -118.642439 262 5424ft 150kts
16-Dec-19 14:57 34.178608 -118.679079 165 7109ft 145kts
16-Dec-19 14:58 34.181793 -118.651664 14 8635ft 123kts
16-Dec-19 14:59 34.221600 -118.642303 11 9085ft 172kts
16-Dec-19 15:00 34.268831 -118.630397 12 9083ft 175kts
16-Dec-19 15:01 34.317042 -118.616847 12 9088ft 178kts
16-Dec-19 15:02 34.340512 -118.571349 79 9091ft 190kts
16-Dec-19 15:03 34.359244 -118.511879 58 9090ft 190kts
16-Dec-19 15:04 34.385821 -118.455956 47 9011ft 190kts
16-Dec-19 15:05 34.377496 -118.398412 144 9009ft 206kts
16-Dec-19 15:06 34.325531 -118.368854 149 8996ft 205kts
16-Dec-19 15:07 34.275000 -118.338455 152 8979ft 204kts
16-Dec-19 15:08 34.224024 -118.308819 152 8965ft 202kts
16-Dec-19 15:09 34.173820 -118.279719 155 8974ft 200kts
16-Dec-19 15:10 34.123813 -118.250761 154 8983ft 203kts
16-Dec-19 15:11 34.074521 -118.222241 153 8989ft 204kts
16-Dec-19 15:12 34.023355 -118.192679 153 8986ft 205kts
16-Dec-19 15:13 33.975083 -118.164839 153 8179ft 180kts
16-Dec-19 15:14 33.931905 -118.139948 152 6955ft 170kts
16-Dec-19 15:15 33.889943 -118.115789 151 5677ft 167kts
16-Dec-19 15:16 33.850700 -118.094080 162 4967ft 135kts
16-Dec-19 15:17 33.815709 -118.083002 160 4973ft 133kts
16-Dec-19 15:18 33.778654 -118.071517 160 4972ft 140kts
16-Dec-19 15:19 33.741087 -118.060391 160 4386ft 140kts
16-Dec-19 15:20 33.702976 -118.049329 160 3425ft 139kts
16-Dec-19 15:21 33.666415 -118.039051 160 2975ft 128kts
16-Dec-19 15:22 33.634976 -118.019863 119 2457ft 122kts
16-Dec-19 15:23 33.619867 -117.987322 104 1830ft 101kts
16-Dec-19 15:24 33.617518 -117.953598 80 1389ft 104kts
16-Dec-19 15:25 33.629611 -117.923980 59 996ft 108kts
16-Dec-19 15:26 33.644198 -117.896210 52 744ft 112kts
16-Dec-19 15:27 33.663436 -117.876689 32 189ft 104kts
16-Dec-19 15:28 33.674216 -117.870751 294 59ft 5kts
16-Dec-19 15:29 33.673744 -117.871644 226 59ft 6kts

Navigation Log

Ident Type
Flight plan parsing failed, navigation log unavailable